sensor_id;sensor_type;location;lat;lon;timestamp;pressure;altitude;pressure_sealevel;temperature;humidity
30302;BME280;17111;52.130;5.028;2024-01-16T00:02:08;100997.44;;;14.65;49.29
30302;BME280;17111;52.130;5.028;2024-01-16T00:04:39;101000.75;;;14.78;49.33
30302;BME280;17111;52.130;5.028;2024-01-16T00:07:07;101000.56;;;14.91;48.86
30302;BME280;17111;52.130;5.028;2024-01-16T00:09:34;101002.19;;;15.03;48.77
30302;BME280;17111;52.130;5.028;2024-01-16T00:12:02;100997.03;;;15.11;48.90
30302;BME280;17111;52.130;5.028;2024-01-16T00:14:30;100995.69;;;15.17;49.21
30302;BME280;17111;52.130;5.028;2024-01-16T00:16:56;100997.38;;;15.18;48.62
30302;BME280;17111;52.130;5.028;2024-01-16T00:19:23;100993.13;;;15.15;48.25
30302;BME280;17111;52.130;5.028;2024-01-16T00:21:50;100997.03;;;15.11;48.58
30302;BME280;17111;52.130;5.028;2024-01-16T00:24:17;100999.28;;;15.06;49.14
30302;BME280;17111;52.130;5.028;2024-01-16T00:26:44;101006.84;;;15.01;49.11
30302;BME280;17111;52.130;5.028;2024-01-16T00:29:11;101001.03;;;14.96;48.88
30302;BME280;17111;52.130;5.028;2024-01-16T00:31:39;101005.78;;;14.92;49.08
30302;BME280;17111;52.130;5.028;2024-01-16T00:34:06;101006.19;;;14.88;49.17
30302;BME280;17111;52.130;5.028;2024-01-16T00:36:32;101000.50;;;14.81;49.54
30302;BME280;17111;52.130;5.028;2024-01-16T00:38:59;101005.38;;;14.76;49.29
30302;BME280;17111;52.130;5.028;2024-01-16T00:41:26;101005.03;;;14.69;49.03
30302;BME280;17111;52.130;5.028;2024-01-16T00:43:53;101011.84;;;14.62;49.56
30302;BME280;17111;52.130;5.028;2024-01-16T00:46:20;101016.88;;;14.55;49.71
30302;BME280;17111;52.130;5.028;2024-01-16T00:48:47;101013.84;;;14.49;49.57
30302;BME280;17111;52.130;5.028;2024-01-16T00:51:14;101014.44;;;14.41;49.81
30302;BME280;17111;52.130;5.028;2024-01-16T00:53:42;101018.72;;;14.32;50.43
30302;BME280;17111;52.130;5.028;2024-01-16T00:56:09;101021.88;;;14.26;50.41
30302;BME280;17111;52.130;5.028;2024-01-16T00:58:36;101015.22;;;14.21;50.58
30302;BME280;17111;52.130;5.028;2024-01-16T01:01:03;101020.09;;;14.16;51.17
30302;BME280;17111;52.130;5.028;2024-01-16T01:03:30;101021.41;;;14.10;50.85
30302;BME280;17111;52.130;5.028;2024-01-16T01:05:57;101027.00;;;14.07;51.22
30302;BME280;17111;52.130;5.028;2024-01-16T01:08:24;101026.38;;;14.15;51.04
30302;BME280;17111;52.130;5.028;2024-01-16T01:10:51;101026.25;;;14.27;50.80
30302;BME280;17111;52.130;5.028;2024-01-16T01:13:18;101018.69;;;14.44;50.85
30302;BME280;17111;52.130;5.028;2024-01-16T01:15:45;101025.72;;;14.56;50.88
30302;BME280;17111;52.130;5.028;2024-01-16T01:18:11;101017.66;;;14.67;50.55
30302;BME280;17111;52.130;5.028;2024-01-16T01:20:38;101044.19;;;14.80;49.75
30302;BME280;17111;52.130;5.028;2024-01-16T01:23:05;101042.31;;;14.92;49.28
30302;BME280;17111;52.130;5.028;2024-01-16T01:25:32;101048.44;;;15.03;49.23
30302;BME280;17111;52.130;5.028;2024-01-16T01:27:58;101053.00;;;15.13;49.34
30302;BME280;17111;52.130;5.028;2024-01-16T01:30:25;101054.03;;;15.21;49.50
30302;BME280;17111;52.130;5.028;2024-01-16T01:32:52;101052.66;;;15.27;48.25
30302;BME280;17111;52.130;5.028;2024-01-16T01:35:19;101050.84;;;15.27;49.24
30302;BME280;17111;52.130;5.028;2024-01-16T01:37:46;101051.13;;;15.24;49.15
30302;BME280;17111;52.130;5.028;2024-01-16T01:40:13;101054.03;;;15.21;48.44
30302;BME280;17111;52.130;5.028;2024-01-16T01:42:42;101050.91;;;15.16;49.25
30302;BME280;17111;52.130;5.028;2024-01-16T01:45:10;101061.41;;;15.08;49.38
30302;BME280;17111;52.130;5.028;2024-01-16T01:47:38;101060.81;;;15.04;48.88
30302;BME280;17111;52.130;5.028;2024-01-16T01:50:09;101063.72;;;15.01;48.66
30302;BME280;17111;52.130;5.028;2024-01-16T01:52:38;101059.63;;;14.97;48.74
30302;BME280;17111;52.130;5.028;2024-01-16T01:55:10;101056.34;;;14.94;49.18
30302;BME280;17111;52.130;5.028;2024-01-16T01:57:39;101052.25;;;14.90;49.16
30302;BME280;17111;52.130;5.028;2024-01-16T02:00:06;101048.16;;;14.86;48.72
30302;BME280;17111;52.130;5.028;2024-01-16T02:02:33;101039.69;;;14.80;49.02
30302;BME280;17111;52.130;5.028;2024-01-16T02:05:00;101040.19;;;14.74;49.58
30302;BME280;17111;52.130;5.028;2024-01-16T02:07:29;101030.97;;;14.67;50.04
30302;BME280;17111;52.130;5.028;2024-01-16T02:09:57;101029.94;;;14.59;50.07
30302;BME280;17111;52.130;5.028;2024-01-16T02:12:24;101035.88;;;14.51;50.03
30302;BME280;17111;52.130;5.028;2024-01-16T02:14:51;101029.97;;;14.47;50.44
30302;BME280;17111;52.130;5.028;2024-01-16T02:17:18;101021.84;;;14.49;50.62
30302;BME280;17111;52.130;5.028;2024-01-16T02:19:45;101027.66;;;14.54;49.82
30302;BME280;17111;52.130;5.028;2024-01-16T02:22:15;101032.22;;;14.63;49.98
30302;BME280;17111;52.130;5.028;2024-01-16T02:24:44;101026.97;;;14.73;50.38
30302;BME280;17111;52.130;5.028;2024-01-16T02:27:11;101027.88;;;14.83;49.71
30302;BME280;17111;52.130;5.028;2024-01-16T02:29:41;101024.47;;;14.92;49.72
30302;BME280;17111;52.130;5.028;2024-01-16T02:32:11;101021.84;;;15.02;49.00
30302;BME280;17111;52.130;5.028;2024-01-16T02:34:39;101029.09;;;15.11;49.48
30302;BME280;17111;52.130;5.028;2024-01-16T02:37:06;101024.81;;;15.20;49.08
30302;BME280;17111;52.130;5.028;2024-01-16T02:39:32;101017.09;;;15.26;48.29
30302;BME280;17111;52.130;5.028;2024-01-16T02:41:59;101015.88;;;15.30;49.31
30302;BME280;17111;52.130;5.028;2024-01-16T02:44:26;101016.59;;;15.33;48.30
30302;BME280;17111;52.130;5.028;2024-01-16T02:46:52;101015.75;;;15.32;49.08
30302;BME280;17111;52.130;5.028;2024-01-16T02:49:19;101016.84;;;15.29;48.19
30302;BME280;17111;52.130;5.028;2024-01-16T02:51:46;101012.88;;;15.24;48.81
30302;BME280;17111;52.130;5.028;2024-01-16T02:54:13;101020.31;;;15.20;49.34
30302;BME280;17111;52.130;5.028;2024-01-16T02:56:40;101016.91;;;15.18;49.57
30302;BME280;17111;52.130;5.028;2024-01-16T02:59:07;101017.16;;;15.15;48.54
30302;BME280;17111;52.130;5.028;2024-01-16T03:01:34;101015.47;;;15.14;49.12
30302;BME280;17111;52.130;5.028;2024-01-16T03:04:00;101021.94;;;15.12;48.37
30302;BME280;17111;52.130;5.028;2024-01-16T03:06:27;101012.38;;;15.09;48.87
30302;BME280;17111;52.130;5.028;2024-01-16T03:08:55;101018.09;;;15.04;48.60
30302;BME280;17111;52.130;5.028;2024-01-16T03:11:22;101020.28;;;14.99;49.37
30302;BME280;17111;52.130;5.028;2024-01-16T03:13:49;101024.34;;;14.94;49.46
30302;BME280;17111;52.130;5.028;2024-01-16T03:16:18;101037.22;;;14.89;48.78
30302;BME280;17111;52.130;5.028;2024-01-16T03:18:45;101034.09;;;14.84;48.57
30302;BME280;17111;52.130;5.028;2024-01-16T03:21:13;101038.25;;;14.76;49.13
30302;BME280;17111;52.130;5.028;2024-01-16T03:23:40;101046.75;;;14.70;49.61
30302;BME280;17111;52.130;5.028;2024-01-16T03:26:06;101034.03;;;14.63;49.92
30302;BME280;17111;52.130;5.028;2024-01-16T03:28:33;101040.75;;;14.57;49.37
30302;BME280;17111;52.130;5.028;2024-01-16T03:31:00;101032.72;;;14.57;49.55
30302;BME280;17111;52.130;5.028;2024-01-16T03:33:27;101037.69;;;14.62;50.03
30302;BME280;17111;52.130;5.028;2024-01-16T03:35:54;101037.06;;;14.69;49.25
30302;BME280;17111;52.130;5.028;2024-01-16T03:38:20;101027.31;;;14.79;50.11
30302;BME280;17111;52.130;5.028;2024-01-16T03:40:47;101028.22;;;14.90;49.43
30302;BME280;17111;52.130;5.028;2024-01-16T03:43:13;101027.09;;;15.03;49.18
30302;BME280;17111;52.130;5.028;2024-01-16T03:45:40;101031.38;;;15.16;48.80
30302;BME280;17111;52.130;5.028;2024-01-16T03:48:07;101022.44;;;15.26;48.62
30302;BME280;17111;52.130;5.028;2024-01-16T03:50:34;101011.94;;;15.35;48.11
30302;BME280;17111;52.130;5.028;2024-01-16T03:53:02;101010.31;;;15.43;48.03
30302;BME280;17111;52.130;5.028;2024-01-16T03:55:32;101008.94;;;15.49;47.88
30302;BME280;17111;52.130;5.028;2024-01-16T03:57:58;101013.88;;;15.53;48.22
30302;BME280;17111;52.130;5.028;2024-01-16T04:00:25;101011.91;;;15.55;47.99
30302;BME280;17111;52.130;5.028;2024-01-16T04:02:52;101006.00;;;15.52;47.45
30302;BME280;17111;52.130;5.028;2024-01-16T04:05:18;101011.72;;;15.47;48.41
30302;BME280;17111;52.130;5.028;2024-01-16T04:07:45;101003.16;;;15.44;47.58
30302;BME280;17111;52.130;5.028;2024-01-16T04:10:12;101009.88;;;15.38;47.59
30302;BME280;17111;52.130;5.028;2024-01-16T04:12:38;101001.28;;;15.35;47.83
30302;BME280;17111;52.130;5.028;2024-01-16T04:15:05;101008.44;;;15.34;47.67
30302;BME280;17111;52.130;5.028;2024-01-16T04:17:32;101008.59;;;15.33;47.84
30302;BME280;17111;52.130;5.028;2024-01-16T04:19:59;101016.44;;;15.34;48.01
30302;BME280;17111;52.130;5.028;2024-01-16T04:22:25;101012.34;;;15.30;48.66
30302;BME280;17111;52.130;5.028;2024-01-16T04:24:52;101017.09;;;15.26;48.38
30302;BME280;17111;52.130;5.028;2024-01-16T04:27:19;101011.19;;;15.23;47.87
30302;BME280;17111;52.130;5.028;2024-01-16T04:29:45;101024.06;;;15.18;47.78
30302;BME280;17111;52.130;5.028;2024-01-16T04:32:12;101020.13;;;15.12;48.89
30302;BME280;17111;52.130;5.028;2024-01-16T04:34:39;101014.19;;;15.09;47.90
30302;BME280;17111;52.130;5.028;2024-01-16T04:37:06;101005.75;;;15.03;49.05
30302;BME280;17111;52.130;5.028;2024-01-16T04:39:32;101006.25;;;14.97;48.39
30302;BME280;17111;52.130;5.028;2024-01-16T04:41:59;101005.91;;;14.91;49.14
30302;BME280;17111;52.130;5.028;2024-01-16T04:44:25;101000.25;;;14.84;48.43
30302;BME280;17111;52.130;5.028;2024-01-16T04:46:52;100999.06;;;14.77;48.47
30302;BME280;17111;52.130;5.028;2024-01-16T04:49:19;101002.38;;;14.69;49.02
30302;BME280;17111;52.130;5.028;2024-01-16T04:51:45;101003.59;;;14.65;49.80
30302;BME280;17111;52.130;5.028;2024-01-16T04:54:13;100999.72;;;14.69;49.12
30302;BME280;17111;52.130;5.028;2024-01-16T04:56:40;101013.00;;;14.80;49.49
30302;BME280;17111;52.130;5.028;2024-01-16T04:59:06;100999.59;;;14.92;48.91
30302;BME280;17111;52.130;5.028;2024-01-16T05:01:33;100997.59;;;15.05;48.68
30302;BME280;17111;52.130;5.028;2024-01-16T05:04:00;100995.69;;;15.17;48.59
30302;BME280;17111;52.130;5.028;2024-01-16T05:06:27;100994.75;;;15.27;48.08
30302;BME280;17111;52.130;5.028;2024-01-16T05:08:54;100978.94;;;15.36;47.93
30302;BME280;17111;52.130;5.028;2024-01-16T05:11:20;100982.75;;;15.43;48.77
30302;BME280;17111;52.130;5.028;2024-01-16T05:13:47;100985.75;;;15.49;47.45
30302;BME280;17111;52.130;5.028;2024-01-16T05:16:13;100979.00;;;15.55;48.24
30302;BME280;17111;52.130;5.028;2024-01-16T05:18:43;100982.53;;;15.55;47.61
30302;BME280;17111;52.130;5.028;2024-01-16T05:21:10;100981.00;;;15.53;47.79
30302;BME280;17111;52.130;5.028;2024-01-16T05:23:37;100967.06;;;15.49;47.61
30302;BME280;17111;52.130;5.028;2024-01-16T05:26:04;100965.78;;;15.44;48.12
30302;BME280;17111;52.130;5.028;2024-01-16T05:28:31;100976.13;;;15.37;48.04
30302;BME280;17111;52.130;5.028;2024-01-16T05:30:57;100960.91;;;15.28;47.96
30302;BME280;17111;52.130;5.028;2024-01-16T05:33:24;100976.47;;;15.23;48.00
30302;BME280;17111;52.130;5.028;2024-01-16T05:35:51;100972.66;;;15.16;48.91
30302;BME280;17111;52.130;5.028;2024-01-16T05:38:17;100976.56;;;15.12;48.39
30302;BME280;17111;52.130;5.028;2024-01-16T05:40:44;100969.78;;;15.08;48.12
30302;BME280;17111;52.130;5.028;2024-01-16T05:43:11;100969.22;;;15.04;49.16
30302;BME280;17111;52.130;5.028;2024-01-16T05:45:37;100965.94;;;15.00;49.30
30302;BME280;17111;52.130;5.028;2024-01-16T05:48:04;100948.63;;;14.95;48.88
30302;BME280;17111;52.130;5.028;2024-01-16T05:50:34;100939.06;;;14.92;49.10
30302;BME280;17111;52.130;5.028;2024-01-16T05:53:01;100942.97;;;14.88;48.84
30302;BME280;17111;52.130;5.028;2024-01-16T05:55:29;100942.66;;;14.81;49.46
30302;BME280;17111;52.130;5.028;2024-01-16T05:57:58;100952.97;;;14.75;49.46
30302;BME280;17111;52.130;5.028;2024-01-16T06:00:27;100954.09;;;14.72;49.43
30302;BME280;17111;52.130;5.028;2024-01-16T06:02:54;100963.28;;;14.79;49.80
30302;BME280;17111;52.130;5.028;2024-01-16T06:05:21;100962.09;;;14.93;49.74
30302;BME280;17111;52.130;5.028;2024-01-16T06:07:48;100959.13;;;15.08;49.74
30302;BME280;17111;52.130;5.028;2024-01-16T06:10:14;100957.19;;;15.19;48.45
30302;BME280;17111;52.130;5.028;2024-01-16T06:12:41;100963.44;;;15.29;49.23
30302;BME280;17111;52.130;5.028;2024-01-16T06:15:08;100959.97;;;15.39;48.75
30302;BME280;17111;52.130;5.028;2024-01-16T06:17:38;100944.13;;;15.47;48.36
30302;BME280;17111;52.130;5.028;2024-01-16T06:20:05;100942.75;;;15.52;47.55
30302;BME280;17111;52.130;5.028;2024-01-16T06:22:33;100946.69;;;15.58;47.64
30302;BME280;17111;52.130;5.028;2024-01-16T06:25:00;100965.97;;;15.62;47.89
30302;BME280;17111;52.130;5.028;2024-01-16T06:27:28;100967.81;;;15.61;47.65
30302;BME280;17111;52.130;5.028;2024-01-16T06:29:54;100966.38;;;15.57;47.82
30302;BME280;17111;52.130;5.028;2024-01-16T06:32:21;100956.94;;;15.53;47.72
30302;BME280;17111;52.130;5.028;2024-01-16T06:34:48;100958.47;;;15.46;47.74
30302;BME280;17111;52.130;5.028;2024-01-16T06:37:14;100963.38;;;15.41;48.86
30302;BME280;17111;52.130;5.028;2024-01-16T06:39:41;100961.22;;;15.35;48.78
30302;BME280;17111;52.130;5.028;2024-01-16T06:42:08;100962.72;;;15.27;48.51
30302;BME280;17111;52.130;5.028;2024-01-16T06:44:37;100956.94;;;15.22;49.29
30302;BME280;17111;52.130;5.028;2024-01-16T06:47:04;100960.84;;;15.18;49.17
30302;BME280;17111;52.130;5.028;2024-01-16T06:49:31;100952.00;;;15.18;48.04
30302;BME280;17111;52.130;5.028;2024-01-16T06:51:58;100951.28;;;15.16;48.70
30302;BME280;17111;52.130;5.028;2024-01-16T06:54:25;100952.41;;;15.13;48.58
30302;BME280;17111;52.130;5.028;2024-01-16T06:56:52;100961.50;;;15.11;48.81
30302;BME280;17111;52.130;5.028;2024-01-16T06:59:19;100959.97;;;15.08;48.88
30302;BME280;17111;52.130;5.028;2024-01-16T07:01:48;100949.69;;;15.03;49.49
30302;BME280;17111;52.130;5.028;2024-01-16T07:04:15;100963.13;;;15.02;49.44
30302;BME280;17111;52.130;5.028;2024-01-16T07:06:42;100955.66;;;14.96;49.47
30302;BME280;17111;52.130;5.028;2024-01-16T07:09:09;100955.78;;;14.94;49.35
30302;BME280;17111;52.130;5.028;2024-01-16T07:11:38;100949.16;;;14.89;48.94
30302;BME280;17111;52.130;5.028;2024-01-16T07:14:07;100953.75;;;14.87;48.61
30302;BME280;17111;52.130;5.028;2024-01-16T07:16:34;100949.81;;;14.81;48.64
30302;BME280;17111;52.130;5.028;2024-01-16T07:19:01;100956.38;;;14.77;49.23
30302;BME280;17111;52.130;5.028;2024-01-16T07:21:29;100950.59;;;14.72;49.53
30302;BME280;17111;52.130;5.028;2024-01-16T07:23:55;100950.94;;;14.67;49.67
30302;BME280;17111;52.130;5.028;2024-01-16T07:26:22;100956.81;;;14.61;49.30
30302;BME280;17111;52.130;5.028;2024-01-16T07:28:49;100964.38;;;14.56;49.03
30302;BME280;17111;52.130;5.028;2024-01-16T07:31:16;100967.41;;;14.51;49.44
30302;BME280;17111;52.130;5.028;2024-01-16T07:33:43;100965.06;;;14.47;49.25
30302;BME280;17111;52.130;5.028;2024-01-16T07:36:11;100969.97;;;14.42;49.91
30302;BME280;17111;52.130;5.028;2024-01-16T07:38:37;100966.00;;;14.36;50.22
30302;BME280;17111;52.130;5.028;2024-01-16T07:41:04;100969.03;;;14.31;50.25
30302;BME280;17111;52.130;5.028;2024-01-16T07:43:32;100972.94;;;14.27;50.14
30302;BME280;17111;52.130;5.028;2024-01-16T07:45:58;100970.75;;;14.21;49.85
30302;BME280;17111;52.130;5.028;2024-01-16T07:48:25;100969.31;;;14.17;50.07
30302;BME280;17111;52.130;5.028;2024-01-16T07:50:52;100982.03;;;14.14;50.69
30302;BME280;17111;52.130;5.028;2024-01-16T07:53:19;100976.09;;;14.10;49.92
30302;BME280;17111;52.130;5.028;2024-01-16T07:55:45;100971.16;;;14.05;50.00
30302;BME280;17111;52.130;5.028;2024-01-16T07:58:13;100981.22;;;14.02;49.92
30302;BME280;17111;52.130;5.028;2024-01-16T08:00:40;100977.94;;;13.98;50.44
30302;BME280;17111;52.130;5.028;2024-01-16T08:03:08;100977.34;;;13.95;50.08
30302;BME280;17111;52.130;5.028;2024-01-16T08:05:38;100975.06;;;13.90;50.09
30302;BME280;17111;52.130;5.028;2024-01-16T08:08:07;100977.09;;;13.87;50.13
30302;BME280;17111;52.130;5.028;2024-01-16T08:10:34;100967.56;;;13.84;50.51
30302;BME280;17111;52.130;5.028;2024-01-16T08:13:01;100972.16;;;13.82;50.56
30302;BME280;17111;52.130;5.028;2024-01-16T08:15:27;100970.47;;;13.81;50.47
30302;BME280;17111;52.130;5.028;2024-01-16T08:17:54;100977.75;;;13.79;50.54
30302;BME280;17111;52.130;5.028;2024-01-16T08:20:21;100973.50;;;13.76;50.62
30302;BME280;17111;52.130;5.028;2024-01-16T08:22:47;100975.31;;;13.76;50.83
30302;BME280;17111;52.130;5.028;2024-01-16T08:25:16;100972.66;;;13.76;50.39
30302;BME280;17111;52.130;5.028;2024-01-16T08:27:43;100977.25;;;13.74;50.41
30302;BME280;17111;52.130;5.028;2024-01-16T08:30:10;100967.44;;;13.74;50.78
30302;BME280;17111;52.130;5.028;2024-01-16T08:32:39;100969.16;;;13.75;50.54
30302;BME280;17111;52.130;5.028;2024-01-16T08:35:06;100978.00;;;13.76;50.38
30302;BME280;17111;52.130;5.028;2024-01-16T08:37:33;100969.16;;;13.75;50.62
30302;BME280;17111;52.130;5.028;2024-01-16T08:40:01;100973.38;;;13.78;50.35
30302;BME280;17111;52.130;5.028;2024-01-16T08:42:27;100969.88;;;13.77;50.42
30302;BME280;17111;52.130;5.028;2024-01-16T08:44:54;100969.75;;;13.79;50.50
30302;BME280;17111;52.130;5.028;2024-01-16T08:47:20;100977.63;;;13.80;50.03
30302;BME280;17111;52.130;5.028;2024-01-16T08:49:47;100976.66;;;13.81;50.16
30302;BME280;17111;52.130;5.028;2024-01-16T08:52:14;100977.38;;;13.83;50.25
30302;BME280;17111;52.130;5.028;2024-01-16T08:54:42;100968.41;;;13.85;49.98
30302;BME280;17111;52.130;5.028;2024-01-16T08:57:08;100968.16;;;13.88;50.52
30302;BME280;17111;52.130;5.028;2024-01-16T08:59:40;100968.16;;;13.88;50.40
30302;BME280;17111;52.130;5.028;2024-01-16T09:02:07;100966.22;;;13.90;50.08
30302;BME280;17111;52.130;5.028;2024-01-16T09:04:34;100964.28;;;13.92;50.21
30302;BME280;17111;52.130;5.028;2024-01-16T09:07:01;100973.97;;;13.93;50.08
30302;BME280;17111;52.130;5.028;2024-01-16T09:09:31;100975.78;;;13.92;49.73
30302;BME280;17111;52.130;5.028;2024-01-16T09:11:57;100970.31;;;13.94;49.54
30302;BME280;17111;52.130;5.028;2024-01-16T09:14:24;100972.00;;;13.95;49.49
30302;BME280;17111;52.130;5.028;2024-01-16T09:16:51;100971.06;;;13.96;49.74
30302;BME280;17111;52.130;5.028;2024-01-16T09:19:19;100965.59;;;13.97;49.66
30302;BME280;17111;52.130;5.028;2024-01-16T09:21:46;100968.25;;;13.97;49.93
30302;BME280;17111;52.130;5.028;2024-01-16T09:24:12;100971.78;;;13.98;49.78
30302;BME280;17111;52.130;5.028;2024-01-16T09:26:39;100968.25;;;13.97;50.10
30302;BME280;17111;52.130;5.028;2024-01-16T09:29:07;100974.44;;;13.98;49.87
30302;BME280;17111;52.130;5.028;2024-01-16T09:31:35;100979.66;;;13.99;50.22
30302;BME280;17111;52.130;5.028;2024-01-16T09:34:03;100973.34;;;14.00;50.18
30302;BME280;17111;52.130;5.028;2024-01-16T09:36:35;100978.53;;;14.02;50.17
30302;BME280;17111;52.130;5.028;2024-01-16T09:39:04;100972.97;;;14.05;49.80
30302;BME280;17111;52.130;5.028;2024-01-16T09:41:35;100972.72;;;14.08;50.43
30302;BME280;17111;52.130;5.028;2024-01-16T09:44:01;100974.19;;;14.12;49.57
30302;BME280;17111;52.130;5.028;2024-01-16T09:46:30;100966.03;;;14.14;50.29
30302;BME280;17111;52.130;5.028;2024-01-16T09:48:59;100969.31;;;14.17;49.46
30302;BME280;17111;52.130;5.028;2024-01-16T09:51:26;100968.22;;;14.20;49.52
30302;BME280;17111;52.130;5.028;2024-01-16T09:53:53;100964.44;;;14.22;50.06
30302;BME280;17111;52.130;5.028;2024-01-16T09:56:22;100955.22;;;14.26;50.14
30302;BME280;17111;52.130;5.028;2024-01-16T09:58:55;100963.81;;;14.30;49.91
30302;BME280;17111;52.130;5.028;2024-01-16T10:01:26;100963.56;;;14.33;49.73
30302;BME280;17111;52.130;5.028;2024-01-16T10:03:53;100950.00;;;14.36;50.17
30302;BME280;17111;52.130;5.028;2024-01-16T10:06:20;100947.19;;;14.38;49.46
30302;BME280;17111;52.130;5.028;2024-01-16T10:08:47;100946.09;;;14.40;49.62
30302;BME280;17111;52.130;5.028;2024-01-16T10:11:14;100946.69;;;14.44;49.90
30302;BME280;17111;52.130;5.028;2024-01-16T10:13:40;100940.22;;;14.46;50.48
30302;BME280;17111;52.130;5.028;2024-01-16T10:16:07;100947.78;;;14.52;50.53
30302;BME280;17111;52.130;5.028;2024-01-16T10:18:35;100941.06;;;14.58;49.42
30302;BME280;17111;52.130;5.028;2024-01-16T10:21:02;100936.06;;;14.65;49.86
30302;BME280;17111;52.130;5.028;2024-01-16T10:23:30;100931.78;;;14.73;49.17
30302;BME280;17111;52.130;5.028;2024-01-16T10:26:10;100935.63;;;14.80;49.00
30302;BME280;17111;52.130;5.028;2024-01-16T10:28:41;100937.63;;;14.88;48.42
30302;BME280;17111;52.130;5.028;2024-01-16T10:31:10;100939.66;;;14.96;48.67
30302;BME280;17111;52.130;5.028;2024-01-16T10:33:38;100938.88;;;15.05;48.44
30302;BME280;17111;52.130;5.028;2024-01-16T10:38:35;100945.56;;;15.20;48.70
30302;BME280;17111;52.130;5.028;2024-01-16T10:41:17;100945.00;;;15.26;48.71
30302;BME280;17111;52.130;5.028;2024-01-16T10:43:44;100942.66;;;15.33;48.96
30302;BME280;17111;52.130;5.028;2024-01-16T10:46:16;100931.44;;;15.39;48.54
30302;BME280;17111;52.130;5.028;2024-01-16T10:48:44;100931.91;;;15.44;48.74
30302;BME280;17111;52.130;5.028;2024-01-16T10:51:14;100924.16;;;15.51;47.73
30302;BME280;17111;52.130;5.028;2024-01-16T10:53:43;100924.63;;;15.56;48.57
30302;BME280;17111;52.130;5.028;2024-01-16T10:56:11;100928.72;;;15.60;48.02
30302;BME280;17111;52.130;5.028;2024-01-16T10:58:41;100923.09;;;15.63;48.39
30302;BME280;17111;52.130;5.028;2024-01-16T11:01:14;100924.41;;;15.69;48.46
30302;BME280;17111;52.130;5.028;2024-01-16T11:03:48;100921.59;;;15.70;47.54
30302;BME280;17111;52.130;5.028;2024-01-16T11:06:16;100912.31;;;15.74;48.35
30302;BME280;17111;52.130;5.028;2024-01-16T11:08:47;100909.38;;;15.77;47.24
30302;BME280;17111;52.130;5.028;2024-01-16T11:11:15;100909.94;;;15.81;48.08
30302;BME280;17111;52.130;5.028;2024-01-16T11:13:42;100899.00;;;15.84;47.98
30302;BME280;17111;52.130;5.028;2024-01-16T11:16:11;100901.53;;;15.86;47.47
30302;BME280;17111;52.130;5.028;2024-01-16T11:18:38;100891.53;;;15.88;47.19
30302;BME280;17111;52.130;5.028;2024-01-16T11:21:16;100881.56;;;15.90;47.66
30302;BME280;17111;52.130;5.028;2024-01-16T11:23:45;100886.63;;;15.93;47.93
30302;BME280;17111;52.130;5.028;2024-01-16T11:26:30;100883.81;;;15.94;47.81
30302;BME280;17111;52.130;5.028;2024-01-16T11:31:54;100891.13;;;16.02;47.63
30302;BME280;17111;52.130;5.028;2024-01-16T11:37:08;100880.00;;;16.07;46.97
30302;BME280;17111;52.130;5.028;2024-01-16T11:39:36;100881.69;;;16.08;46.79
30302;BME280;17111;52.130;5.028;2024-01-16T11:42:02;100877.91;;;16.10;47.19
30302;BME280;17111;52.130;5.028;2024-01-16T11:47:20;100875.66;;;16.15;47.23
30302;BME280;17111;52.130;5.028;2024-01-16T11:49:49;100865.66;;;16.17;47.50
30302;BME280;17111;52.130;5.028;2024-01-16T11:52:39;100869.19;;;16.18;46.86
30302;BME280;17111;52.130;5.028;2024-01-16T11:55:27;100860.03;;;16.20;47.07
30302;BME280;17111;52.130;5.028;2024-01-16T12:00:36;100865.53;;;16.28;46.65
30302;BME280;17111;52.130;5.028;2024-01-16T12:03:08;100868.91;;;16.31;46.79
30302;BME280;17111;52.130;5.028;2024-01-16T12:05:37;100869.47;;;16.34;46.39
30302;BME280;17111;52.130;5.028;2024-01-16T12:08:03;100855.94;;;16.36;46.99
30302;BME280;17111;52.130;5.028;2024-01-16T12:10:32;100858.34;;;16.39;46.82
30302;BME280;17111;52.130;5.028;2024-01-16T12:12:59;100858.88;;;16.42;46.56
30302;BME280;17111;52.130;5.028;2024-01-16T12:15:30;100851.59;;;16.44;46.91
30302;BME280;17111;52.130;5.028;2024-01-16T12:18:01;100860.44;;;16.45;46.66
30302;BME280;17111;52.130;5.028;2024-01-16T12:20:31;100848.59;;;16.47;46.37
30302;BME280;17111;52.130;5.028;2024-01-16T12:23:02;100859.28;;;16.47;45.90
30302;BME280;17111;52.130;5.028;2024-01-16T12:25:34;100859.47;;;16.46;44.88
30302;BME280;17111;52.130;5.028;2024-01-16T12:28:21;100858.47;;;16.47;45.49
30302;BME280;17111;52.130;5.028;2024-01-16T12:30:51;100848.91;;;16.44;45.54
30302;BME280;17111;52.130;5.028;2024-01-16T12:33:23;100840.00;;;16.44;45.84
30302;BME280;17111;52.130;5.028;2024-01-16T12:36:00;100843.56;;;16.44;45.98
30302;BME280;17111;52.130;5.028;2024-01-16T12:38:28;100839.88;;;16.45;45.73
30302;BME280;17111;52.130;5.028;2024-01-16T12:40:55;100840.16;;;16.42;45.50
30302;BME280;17111;52.130;5.028;2024-01-16T12:43:21;100842.16;;;16.40;44.78
30302;BME280;17111;52.130;5.028;2024-01-16T12:45:55;100845.09;;;16.37;45.14
30302;BME280;17111;52.130;5.028;2024-01-16T12:48:24;100839.88;;;16.36;45.58
30302;BME280;17111;52.130;5.028;2024-01-16T12:50:59;100837.22;;;16.36;45.98
30302;BME280;17111;52.130;5.028;2024-01-16T12:53:29;100831.59;;;16.39;46.00
30302;BME280;17111;52.130;5.028;2024-01-16T12:55:59;100837.66;;;16.41;46.61
30302;BME280;17111;52.130;5.028;2024-01-16T12:58:32;100831.16;;;16.43;45.89
30302;BME280;17111;52.130;5.028;2024-01-16T13:01:29;100827.50;;;16.44;46.05
30302;BME280;17111;52.130;5.028;2024-01-16T13:04:06;100821.72;;;16.49;46.17
30302;BME280;17111;52.130;5.028;2024-01-16T13:06:33;100818.72;;;16.52;46.10
30302;BME280;17111;52.130;5.028;2024-01-16T13:09:08;100823.97;;;16.53;45.45